Time;durP1;ratioP1;P1;durP2;ratioP2;P2;SDS_P1;SDS_P2;PMS_P1;PMS_P2;Temp;Humidity;BMP_temperature;BMP_pressure;BME280_temperature;BME280_humidity;BME280_pressure;Samples;Min_cycle;Max_cycle;Signal;HPM_P1;HPM_P2
2023/08/02 00:00:51;;;;;;;2.30;2.10;;;;;;;16.44;100.00;99856.47;6099475;28;20267;-67
2023/08/02 00:04:13;;;;;;;1.90;1.60;;;;;;;16.35;100.00;99843.22;6101991;29;20236;-67
2023/08/02 00:07:34;;;;;;;1.73;1.57;;;;;;;16.43;100.00;99853.94;6090850;29;20462;-67
2023/08/02 00:10:55;;;;;;;1.60;1.50;;;;;;;16.29;100.00;99849.44;6092377;28;20240;-66
2023/08/02 00:14:16;;;;;;;1.93;1.77;;;;;;;16.43;100.00;99845.78;6098091;29;20240;-66
2023/08/02 00:17:37;;;;;;;2.47;2.13;;;;;;;16.24;100.00;99849.19;6075139;29;20641;-67
2023/08/02 00:20:59;;;;;;;2.13;1.90;;;;;;;16.28;100.00;99848.59;6091877;29;21987;-67
2023/08/02 00:24:23;;;;;;;3.30;2.37;;;;;;;16.26;100.00;99847.13;6092114;28;20248;-66
2023/08/02 00:27:44;;;;;;;1.53;1.47;;;;;;;16.34;100.00;99841.53;6084307;28;20232;-66
2023/08/02 00:31:05;;;;;;;3.07;1.53;;;;;;;16.26;100.00;99849.84;6085714;28;20240;-66
2023/08/02 00:34:29;;;;;;;2.63;2.33;;;;;;;16.22;100.00;99849.41;6091797;29;20665;-67
2023/08/02 00:37:51;;;;;;;3.70;2.07;;;;;;;16.33;100.00;99848.88;6087709;28;20239;-66
2023/08/02 00:41:12;;;;;;;1.70;1.60;;;;;;;16.29;100.00;99844.00;6065708;28;20240;-67
2023/08/02 00:44:39;;;;;;;5.70;1.93;;;;;;;16.25;100.00;99850.88;6083790;29;20236;-67
2023/08/02 00:48:04;;;;;;;2.87;2.17;;;;;;;16.21;100.00;99846.88;6082568;29;20570;-67
2023/08/02 00:51:24;;;;;;;2.00;1.90;;;;;;;16.43;100.00;99846.63;6077686;29;20694;-67
2023/08/02 00:54:48;;;;;;;2.40;2.10;;;;;;;16.27;100.00;99844.19;6097824;28;20318;-66
2023/08/02 00:58:09;;;;;;;2.33;2.13;;;;;;;16.34;100.00;99850.53;6087728;29;20235;-66
2023/08/02 01:01:31;;;;;;;3.37;2.80;;;;;;;16.20;100.00;99851.47;6102585;29;20318;-68
2023/08/02 01:04:52;;;;;;;2.63;2.43;;;;;;;16.15;100.00;99844.94;6107714;29;20544;-66
2023/08/02 01:08:23;;;;;;;4.33;2.10;;;;;;;16.16;100.00;99842.03;6069956;28;20236;-66
2023/08/02 01:11:51;;;;;;;2.83;2.53;;;;;;;16.10;100.00;99850.97;6090755;29;20238;-67
2023/08/02 01:15:15;;;;;;;3.40;3.07;;;;;;;16.19;100.00;99836.19;6100894;29;20232;-66
2023/08/02 01:18:36;;;;;;;3.43;2.87;;;;;;;16.13;100.00;99833.41;6074844;29;20236;-65
2023/08/02 01:21:58;;;;;;;3.87;2.33;;;;;;;16.18;100.00;99834.50;6063637;29;20630;-66
2023/08/02 01:25:20;;;;;;;2.50;2.13;;;;;;;16.39;100.00;99830.91;6089469;29;20970;-66
2023/08/02 01:28:45;;;;;;;3.13;1.93;;;;;;;16.28;100.00;99835.00;6084108;28;20239;-66
2023/08/02 01:32:07;;;;;;;3.03;2.70;;;;;;;16.30;100.00;99830.22;6088671;29;20259;-66
2023/08/02 01:35:29;;;;;;;3.20;3.00;;;;;;;16.35;100.00;99829.63;6094670;28;20224;-67
2023/08/02 01:38:52;;;;;;;3.10;2.80;;;;;;;16.41;100.00;99823.38;6085764;29;20240;-65
2023/08/02 01:42:12;;;;;;;2.63;2.43;;;;;;;16.37;100.00;99825.66;6094131;29;20224;-66
2023/08/02 01:45:34;;;;;;;2.73;2.17;;;;;;;16.28;100.00;99817.84;6104379;28;20300;-66
2023/08/02 01:48:55;;;;;;;2.87;2.67;;;;;;;16.22;100.00;99822.19;6105430;28;20537;-65
2023/08/02 01:52:16;;;;;;;10.73;3.77;;;;;;;16.35;100.00;99816.88;6094767;28;20650;-66
2023/08/02 01:55:38;;;;;;;3.70;2.97;;;;;;;16.14;100.00;99818.78;6111033;28;20457;-66
2023/08/02 01:58:59;;;;;;;5.00;2.97;;;;;;;16.23;100.00;99821.16;6092845;28;20259;-66
2023/08/02 02:02:19;;;;;;;2.27;2.07;;;;;;;16.13;100.00;99823.38;6092768;28;20362;-65
2023/08/02 02:05:40;;;;;;;2.70;2.50;;;;;;;16.36;100.00;99813.09;6082654;29;20231;-66
2023/08/02 02:09:02;;;;;;;3.20;2.93;;;;;;;16.29;100.00;99808.66;6094042;29;20227;-66
2023/08/02 02:12:27;;;;;;;2.80;2.23;;;;;;;16.23;100.00;99817.63;6078477;29;20319;-66
2023/08/02 02:15:48;;;;;;;3.08;2.78;;;;;;;16.24;100.00;99817.41;6103873;29;20231;-66
2023/08/02 02:19:10;;;;;;;2.30;1.77;;;;;;;16.16;100.00;99812.13;6086078;29;20735;-66
2023/08/02 02:22:31;;;;;;;4.07;3.63;;;;;;;16.30;100.00;99804.88;6086755;29;20228;-67
2023/08/02 02:25:52;;;;;;;2.63;2.43;;;;;;;16.25;100.00;99808.19;6103864;29;20232;-66
2023/08/02 02:29:14;;;;;;;2.40;2.30;;;;;;;16.27;100.00;99810.72;6089944;28;20601;-66
2023/08/02 02:32:34;;;;;;;3.17;2.78;;;;;;;16.28;100.00;99801.53;6089853;29;20310;-67
2023/08/02 02:35:57;;;;;;;2.20;2.07;;;;;;;16.38;100.00;99804.72;6092054;29;20240;-67
2023/08/02 02:39:20;;;;;;;2.23;2.10;;;;;;;16.16;100.00;99812.13;6097783;28;20239;-66
2023/08/02 02:42:41;;;;;;;3.63;2.37;;;;;;;16.00;100.00;99807.81;6089155;29;20717;-66
2023/08/02 02:46:04;;;;;;;1.80;1.70;;;;;;;16.02;100.00;99819.31;6090907;29;20606;-66
2023/08/02 02:49:24;;;;;;;3.90;2.73;;;;;;;16.06;100.00;99808.06;6101244;29;20232;-66
2023/08/02 02:52:45;;;;;;;2.67;2.47;;;;;;;15.87;100.00;99804.16;6089750;29;20609;-65
2023/08/02 02:56:06;;;;;;;2.70;2.50;;;;;;;16.08;100.00;99808.69;6090864;29;20265;-66
2023/08/02 02:59:27;;;;;;;4.93;3.50;;;;;;;15.88;100.00;99803.94;6093334;29;20259;-66
2023/08/02 03:02:50;;;;;;;2.47;2.23;;;;;;;15.91;100.00;99809.00;6096412;28;20233;-66
2023/08/02 03:06:11;;;;;;;2.03;1.93;;;;;;;15.75;100.00;99816.59;6092745;28;20228;-66
2023/08/02 03:09:32;;;;;;;1.83;1.73;;;;;;;15.80;100.00;99819.53;6097505;29;20251;-66
2023/08/02 03:12:54;;;;;;;3.50;2.63;;;;;;;15.90;100.00;99823.63;6069447;29;20229;-66
2023/08/02 03:16:15;;;;;;;2.53;2.33;;;;;;;15.83;100.00;99817.28;6068535;28;20253;-66
2023/08/02 03:19:37;;;;;;;3.20;2.97;;;;;;;15.89;100.00;99821.09;6099987;28;20240;-66
2023/08/02 03:22:58;;;;;;;2.33;2.13;;;;;;;16.10;100.00;99806.63;6086777;29;20236;-66
2023/08/02 03:26:19;;;;;;;3.20;2.57;;;;;;;15.97;100.00;99816.38;6088489;29;20815;-66
2023/08/02 03:29:40;;;;;;;7.10;3.50;;;;;;;15.97;100.00;99812.81;6093693;29;20798;-67
2023/08/02 03:33:02;;;;;;;3.63;2.40;;;;;;;15.84;100.00;99810.81;6081243;28;20231;-66
2023/08/02 03:36:24;;;;;;;2.40;2.10;;;;;;;15.86;100.00;99819.59;6087880;28;20230;-66
2023/08/02 03:39:47;;;;;;;2.37;2.17;;;;;;;16.04;100.00;99813.72;6096094;28;22700;-65
2023/08/02 03:43:08;;;;;;;2.30;2.17;;;;;;;16.07;100.00;99820.59;6089033;29;20302;-66
2023/08/02 03:46:31;;;;;;;2.37;2.13;;;;;;;15.94;100.00;99819.47;6093607;29;20299;-66
2023/08/02 03:49:52;;;;;;;2.43;2.33;;;;;;;16.10;100.00;99817.50;6099780;29;20243;-66
2023/08/02 03:53:17;;;;;;;3.93;3.27;;;;;;;16.12;100.00;99810.84;6092246;29;20227;-66
2023/08/02 03:56:38;;;;;;;3.00;2.80;;;;;;;16.15;100.00;99821.31;6098303;28;20223;-66
2023/08/02 03:59:59;;;;;;;2.60;2.40;;;;;;;16.04;100.00;99826.44;6101313;29;20255;-66
2023/08/02 04:03:20;;;;;;;2.90;2.70;;;;;;;16.00;100.00;99821.41;6092615;29;20239;-66
2023/08/02 04:06:41;;;;;;;3.27;2.97;;;;;;;15.95;100.00;99820.31;6085883;28;20338;-66
2023/08/02 04:10:03;;;;;;;3.50;3.20;;;;;;;16.03;100.00;99817.44;6099189;29;20317;-66
2023/08/02 04:13:24;;;;;;;3.13;2.53;;;;;;;15.89;100.00;99821.94;6088225;29;20235;-66
2023/08/02 04:16:45;;;;;;;3.50;3.20;;;;;;;15.94;100.00;99829.50;6086666;29;20512;-66
2023/08/02 04:20:07;;;;;;;4.20;3.80;;;;;;;15.95;100.00;99829.31;6097256;28;20236;-66
2023/08/02 04:23:28;;;;;;;4.33;3.93;;;;;;;15.92;100.00;99826.13;6066587;28;20232;-65
2023/08/02 04:26:50;;;;;;;3.70;3.50;;;;;;;15.78;100.00;99830.63;6090936;29;20228;-66
2023/08/02 04:30:12;;;;;;;5.30;4.80;;;;;;;15.80;100.00;99833.97;6095616;29;20315;-66
2023/08/02 04:33:33;;;;;;;5.00;4.60;;;;;;;15.93;100.00;99831.38;6083791;29;20240;-66
2023/08/02 04:36:54;;;;;;;5.10;4.67;;;;;;;16.00;100.00;99820.53;6094860;29;20232;-65
2023/08/02 04:40:15;;;;;;;5.50;5.03;;;;;;;15.91;100.00;99825.31;6106554;28;20694;-66
2023/08/02 04:43:38;;;;;;;5.90;5.50;;;;;;;15.94;100.00;99819.47;6096110;28;20553;-65
2023/08/02 04:46:59;;;;;;;5.63;5.13;;;;;;;15.89;100.00;99829.25;6092916;29;20318;-66
2023/08/02 04:50:19;;;;;;;4.80;4.37;;;;;;;15.96;100.00;99817.38;6102790;28;20244;-66
2023/08/02 04:53:42;;;;;;;5.40;4.23;;;;;;;16.06;100.00;99817.06;6089537;29;20231;-66
2023/08/02 04:57:04;;;;;;;5.77;5.27;;;;;;;16.19;100.00;99817.16;6094027;29;20232;-66
2023/08/02 05:00:26;;;;;;;5.83;5.30;;;;;;;16.23;100.00;99812.16;6097450;29;20255;-66
2023/08/02 05:03:47;;;;;;;8.10;5.53;;;;;;;15.94;100.00;99824.91;6096369;29;20646;-65
2023/08/02 05:07:08;;;;;;;5.43;5.03;;;;;;;16.21;100.00;99819.69;6085360;29;20540;-65
2023/08/02 05:10:29;;;;;;;5.40;4.97;;;;;;;16.21;100.00;99817.78;6070263;28;20236;-68
2023/08/02 05:13:50;;;;;;;4.75;4.28;;;;;;;16.32;100.00;99813.69;6082276;29;20232;-65
2023/08/02 05:17:12;;;;;;;6.55;4.47;;;;;;;16.48;100.00;99814.19;6084059;29;20279;-66
2023/08/02 05:20:33;;;;;;;5.47;4.70;;;;;;;16.41;100.00;99821.50;6102102;29;20687;-66
2023/08/02 05:23:53;;;;;;;4.18;3.88;;;;;;;16.40;100.00;99822.53;6087291;29;20240;-66
2023/08/02 05:27:14;;;;;;;8.85;4.78;;;;;;;16.51;100.00;99821.16;6088568;29;20227;-66
2023/08/02 05:30:37;;;;;;;5.47;4.97;;;;;;;16.68;100.00;99811.63;6100516;28;20236;-65
2023/08/02 05:33:59;;;;;;;4.13;3.58;;;;;;;16.58;100.00;99811.16;6071901;28;20626;-66
2023/08/02 05:37:21;;;;;;;7.27;3.77;;;;;;;16.76;100.00;99808.75;6092449;28;20243;-65
2023/08/02 05:40:42;;;;;;;5.78;4.70;;;;;;;16.59;100.00;99796.50;6107647;28;20239;-66
2023/08/02 05:44:03;;;;;;;5.38;3.65;;;;;;;16.54;100.00;99788.94;6093839;28;20251;-66
2023/08/02 05:47:24;;;;;;;4.10;3.80;;;;;;;16.71;100.00;99786.72;6092361;28;20326;-66
2023/08/02 05:50:46;;;;;;;6.50;3.47;;;;;;;16.73;100.00;99790.94;6087726;28;20259;-68
2023/08/02 05:54:07;;;;;;;5.80;3.30;;;;;;;16.76;100.00;99778.81;6086341;28;21166;-65
2023/08/02 05:57:28;;;;;;;5.13;3.30;;;;;;;16.82;100.00;99777.97;6091247;28;20232;-65
2023/08/02 06:00:49;;;;;;;10.43;3.87;;;;;;;16.70;100.00;99777.75;6092095;29;20907;-65
2023/08/02 06:04:10;;;;;;;4.10;3.77;;;;;;;16.84;100.00;99780.50;6090878;28;20307;-66
2023/08/02 06:07:32;;;;;;;3.90;3.50;;;;;;;16.76;100.00;99782.38;6091318;29;20240;-66
2023/08/02 06:10:53;;;;;;;5.18;3.08;;;;;;;16.71;100.00;99784.00;6105127;28;20239;-66
2023/08/02 06:14:14;;;;;;;5.53;4.07;;;;;;;16.60;100.00;99792.75;6106616;28;20248;-65
2023/08/02 06:17:34;;;;;;;6.23;4.33;;;;;;;16.49;100.00;99793.28;6092553;29;20231;-66
2023/08/02 06:20:55;;;;;;;5.43;4.07;;;;;;;16.65;100.00;99790.25;6101334;28;20244;-64
2023/08/02 06:24:17;;;;;;;4.88;4.47;;;;;;;16.53;100.00;99797.31;6105772;29;20244;-66
2023/08/02 06:27:38;;;;;;;4.83;4.43;;;;;;;16.95;100.00;99794.38;6108199;29;20236;-66
2023/08/02 06:30:59;;;;;;;4.63;4.22;;;;;;;17.10;100.00;99789.63;6105874;29;20236;-67
2023/08/02 06:34:20;;;;;;;4.77;4.27;;;;;;;16.95;100.00;99788.09;6103165;28;20251;-68
2023/08/02 06:37:42;;;;;;;4.40;4.00;;;;;;;17.25;100.00;99781.28;6111462;29;20247;-67
2023/08/02 06:41:05;;;;;;;5.50;4.27;;;;;;;16.95;100.00;99786.22;6109441;29;20488;-67
2023/08/02 06:44:26;;;;;;;5.13;4.10;;;;;;;17.25;100.00;99781.28;6115866;28;20243;-68
2023/08/02 06:47:46;;;;;;;4.20;3.33;;;;;;;17.88;100.00;99767.13;6111961;28;20228;-67
2023/08/02 06:51:11;;;;;;;6.70;3.58;;;;;;;17.63;100.00;99766.06;6110027;29;20240;-66
2023/08/02 06:54:32;;;;;;;3.47;3.17;;;;;;;17.92;100.00;99767.56;6101870;29;20251;-66
2023/08/02 06:57:55;;;;;;;4.97;3.92;;;;;;;17.68;100.00;99769.00;6099889;29;20256;-65
2023/08/02 07:01:17;;;;;;;5.10;2.78;;;;;;;17.49;100.00;99776.13;6102088;29;20236;-65
2023/08/02 07:04:37;;;;;;;3.80;3.50;;;;;;;17.41;100.00;99776.28;6097858;29;20231;-66
2023/08/02 07:08:00;;;;;;;3.40;3.10;;;;;;;17.83;100.00;99761.47;6099656;29;20237;-66
2023/08/02 07:11:20;;;;;;;4.88;3.55;;;;;;;18.06;100.00;99759.16;6093709;29;20236;-67
2023/08/02 07:14:43;;;;;;;3.55;3.30;;;;;;;18.09;100.00;99752.41;6099918;29;20227;-66
2023/08/02 07:18:04;;;;;;;3.80;3.15;;;;;;;17.95;100.00;99756.22;6090705;28;20232;-66
2023/08/02 07:21:25;;;;;;;3.45;2.88;;;;;;;17.91;100.00;99735.88;6102160;29;20665;-66
2023/08/02 07:24:46;;;;;;;13.95;3.97;;;;;;;18.14;99.92;99733.53;6108591;29;20235;-66
2023/08/02 07:28:07;;;;;;;4.75;4.20;;;;;;;18.43;99.00;99740.38;6098454;29;20224;-66
2023/08/02 07:31:29;;;;;;;4.20;3.78;;;;;;;18.07;98.86;99738.13;6102731;29;20235;-66
2023/08/02 07:34:50;;;;;;;11.10;3.53;;;;;;;18.10;98.36;99733.13;6095518;29;20231;-67
2023/08/02 07:38:11;;;;;;;4.90;3.35;;;;;;;17.79;98.33;99730.22;6092351;28;20227;-66
2023/08/02 07:41:31;;;;;;;4.22;3.22;;;;;;;17.83;99.10;99726.03;6100448;28;20255;-66
2023/08/02 07:45:07;;;;;;;6.10;4.05;;;;;;;18.15;99.22;99719.66;6098760;28;20232;-66
2023/08/02 07:48:29;;;;;;;4.40;2.65;;;;;;;18.46;98.61;99715.44;6101340;28;20323;-65
2023/08/02 07:51:50;;;;;;;9.25;2.92;;;;;;;18.47;97.51;99712.47;6105000;28;20231;-64
2023/08/02 07:55:11;;;;;;;5.90;3.58;;;;;;;18.21;96.47;99718.00;6103479;28;20227;-65
2023/08/02 07:58:32;;;;;;;6.90;2.92;;;;;;;18.58;95.88;99708.22;6106346;28;20271;-67
2023/08/02 08:01:53;;;;;;;6.07;3.65;;;;;;;18.86;95.29;99706.84;6089571;28;20243;-65
2023/08/02 08:05:16;;;;;;;3.60;2.85;;;;;;;18.63;93.74;99703.78;6086375;28;20250;-66
2023/08/02 08:08:37;;;;;;;3.15;2.65;;;;;;;19.21;92.58;99706.44;6098055;29;20241;-66
2023/08/02 08:11:58;;;;;;;4.95;2.70;;;;;;;18.91;91.07;99708.91;6115616;28;20239;-66
2023/08/02 08:15:19;;;;;;;9.15;3.58;;;;;;;19.53;90.48;99708.09;6111409;28;20615;-67
2023/08/02 08:18:40;;;;;;;4.88;2.35;;;;;;;19.76;89.87;99692.75;6107310;29;20243;-67
2023/08/02 08:22:02;;;;;;;6.53;2.60;;;;;;;19.82;89.17;99691.00;6106988;29;20263;-66
2023/08/02 08:25:22;;;;;;;7.18;3.45;;;;;;;19.89;88.24;99680.88;6104471;29;20232;-66
2023/08/02 08:28:43;;;;;;;3.90;3.03;;;;;;;20.40;86.74;99673.16;6103210;28;20619;-66
2023/08/02 08:32:05;;;;;;;4.22;3.10;;;;;;;20.56;85.95;99682.66;6101457;29;20227;-66
2023/08/02 08:35:26;;;;;;;5.70;2.72;;;;;;;20.49;84.98;99687.38;6113629;28;20235;-67
2023/08/02 08:38:48;;;;;;;4.85;2.78;;;;;;;20.36;85.04;99682.91;6109924;29;20240;-67
2023/08/02 08:42:09;;;;;;;10.30;2.45;;;;;;;20.52;84.74;99685.03;6106518;28;20258;-67
2023/08/02 08:45:30;;;;;;;4.32;2.88;;;;;;;20.22;84.76;99689.59;6116625;28;20753;-66
2023/08/02 08:48:51;;;;;;;2.33;2.13;;;;;;;20.69;83.94;99682.50;6116079;28;20239;-66
2023/08/02 08:52:13;;;;;;;4.70;2.67;;;;;;;20.91;82.99;99674.59;6111706;28;20531;-67
2023/08/02 08:55:37;;;;;;;2.88;2.17;;;;;;;20.49;83.41;99666.31;6116581;28;20236;-67
2023/08/02 08:59:01;;;;;;;3.58;2.53;;;;;;;20.26;81.96;99651.63;6104443;28;20263;-67
2023/08/02 09:02:22;;;;;;;4.00;2.22;;;;;;;20.18;82.27;99644.56;6108562;28;20235;-66
2023/08/02 09:05:44;;;;;;;2.78;2.20;;;;;;;20.35;80.50;99636.59;6112293;29;20236;-66
2023/08/02 09:09:05;;;;;;;3.70;2.30;;;;;;;20.19;80.41;99635.28;6106195;28;20605;-66
2023/08/02 09:12:28;;;;;;;4.93;2.08;;;;;;;20.91;78.10;99625.28;6107370;28;20330;-66
2023/08/02 09:16:06;;;;;;;2.15;1.88;;;;;;;20.90;77.05;99623.63;6117518;28;20335;-66
2023/08/02 09:19:28;;;;;;;3.58;2.47;;;;;;;21.06;76.95;99621.09;6115337;28;20232;-67
2023/08/02 09:22:49;;;;;;;3.75;2.20;;;;;;;20.75;76.32;99617.72;6118239;29;20241;-66
2023/08/02 09:26:11;;;;;;;3.10;1.92;;;;;;;20.30;77.48;99628.22;6106878;29;20237;-66
2023/08/02 09:29:50;;;;;;;4.90;2.17;;;;;;;19.97;79.03;99617.63;6110781;28;20233;-66
2023/08/02 09:33:10;;;;;;;3.65;2.63;;;;;;;19.93;79.78;99613.69;6110981;28;22835;-67
2023/08/02 09:36:33;;;;;;;8.85;3.45;;;;;;;19.85;80.69;99605.78;6105126;28;20236;-67
2023/08/02 09:39:53;;;;;;;3.72;2.25;;;;;;;20.17;80.52;99599.06;6105802;28;20689;-66
2023/08/02 09:43:16;;;;;;;3.63;2.30;;;;;;;20.08;80.35;99597.72;6096435;29;20227;-65
2023/08/02 09:46:38;;;;;;;4.20;2.58;;;;;;;20.08;81.51;99581.31;6097902;29;20235;-71
2023/08/02 09:50:04;;;;;;;5.45;2.65;;;;;;;19.98;81.11;99574.69;6112479;29;20232;-72
2023/08/02 09:53:26;;;;;;;2.40;2.20;;;;;;;20.01;81.59;99564.13;6109604;29;20239;-70
2023/08/02 09:56:47;;;;;;;4.88;2.35;;;;;;;20.12;81.52;99565.25;6106627;29;20237;-71
2023/08/02 10:00:10;;;;;;;4.50;2.85;;;;;;;20.33;81.03;99568.38;6111158;29;20299;-70
2023/08/02 10:03:38;;;;;;;3.42;2.33;;;;;;;20.21;80.67;99555.72;6108730;28;20238;-70
2023/08/02 10:07:03;;;;;;;6.05;2.90;;;;;;;20.62;81.09;99545.66;6109622;29;20235;-71
2023/08/02 10:10:29;;;;;;;2.70;2.42;;;;;;;20.53;80.04;99543.44;6104857;29;20232;-67
2023/08/02 10:13:54;;;;;;;1.85;1.60;;;;;;;20.51;80.12;99540.94;6107966;28;20517;-69
2023/08/02 10:17:18;;;;;;;4.25;2.45;;;;;;;20.56;79.69;99538.38;6110888;28;20712;-68
2023/08/02 10:20:41;;;;;;;8.40;3.00;;;;;;;20.13;79.83;99534.91;6098165;29;20702;-68
2023/08/02 10:24:02;;;;;;;6.15;2.85;;;;;;;20.42;80.29;99525.91;6075982;28;20642;-69
2023/08/02 10:27:26;;;;;;;2.80;2.28;;;;;;;20.04;80.16;99513.59;6086960;29;20257;-66
2023/08/02 10:30:47;;;;;;;8.18;2.67;;;;;;;20.37;80.70;99520.31;6093167;29;20240;-67
2023/08/02 10:34:41;;;;;;;3.63;1.75;;;;;;;20.29;81.52;99509.69;6094641;28;20333;-68
2023/08/02 10:38:03;;;;;;;5.13;3.15;;;;;;;19.80;82.03;99518.09;6094392;28;20232;-66
2023/08/02 10:41:27;;;;;;;5.70;2.58;;;;;;;19.85;83.16;99513.63;6098864;28;20235;-68
2023/08/02 10:45:11;;;;;;;7.13;3.22;;;;;;;19.90;83.11;99507.47;6099451;28;20232;-67
2023/08/02 10:48:32;;;;;;;3.28;2.97;;;;;;;19.83;82.35;99485.66;6105619;28;20236;-65
2023/08/02 10:51:56;;;;;;;4.10;2.17;;;;;;;19.86;81.89;99482.44;6086456;29;20314;-66
2023/08/02 10:55:19;;;;;;;5.43;2.45;;;;;;;20.21;81.46;99474.44;6095299;28;20236;-67
2023/08/02 10:58:52;;;;;;;3.10;2.20;;;;;;;20.33;80.94;99458.88;6077499;29;21904;-67
2023/08/02 11:02:12;;;;;;;3.53;2.25;;;;;;;20.08;80.39;99458.16;6099713;28;20231;-67
2023/08/02 11:05:41;;;;;;;5.18;3.08;;;;;;;20.39;80.31;99468.06;6108519;28;20236;-68
2023/08/02 11:09:02;;;;;;;4.57;1.90;;;;;;;20.13;80.80;99463.75;6100289;28;20223;-68
2023/08/02 11:12:26;;;;;;;6.47;2.47;;;;;;;20.02;81.24;99444.56;6105799;28;21585;-68
2023/08/02 11:15:47;;;;;;;8.50;2.58;;;;;;;20.20;81.12;99437.19;6109780;28;20461;-68
2023/08/02 11:19:09;;;;;;;6.70;2.38;;;;;;;20.22;81.37;99450.63;6104256;28;20322;-68
2023/08/02 11:22:35;;;;;;;4.20;3.13;;;;;;;20.16;81.58;99440.56;6102690;28;20236;-69
2023/08/02 11:26:07;;;;;;;6.90;2.63;;;;;;;20.46;80.94;99433.22;6101375;28;20306;-67
2023/08/02 11:29:30;;;;;;;3.55;2.33;;;;;;;21.01;79.99;99423.59;6100798;28;20235;-68
2023/08/02 11:32:51;;;;;;;6.30;2.28;;;;;;;20.93;79.28;99417.63;6094671;29;20231;-69
2023/08/02 11:36:12;;;;;;;1.67;1.58;;;;;;;20.40;79.66;99413.06;6099919;29;20231;-66
2023/08/02 11:39:34;;;;;;;3.67;2.22;;;;;;;20.59;80.22;99414.63;6097986;28;20247;-68
2023/08/02 11:42:55;;;;;;;4.25;2.75;;;;;;;20.59;79.85;99402.84;6097991;28;20228;-67
2023/08/02 11:46:21;;;;;;;3.80;2.35;;;;;;;20.46;79.41;99403.91;6105219;28;20227;-68
2023/08/02 11:49:52;;;;;;;2.78;2.42;;;;;;;20.55;79.38;99397.00;6107002;29;20240;-67
2023/08/02 11:53:13;;;;;;;5.18;2.58;;;;;;;20.35;79.72;99385.56;6102851;28;20494;-66
2023/08/02 11:56:35;;;;;;;2.60;1.70;;;;;;;20.33;79.77;99384.97;6099461;28;20255;-67
2023/08/02 11:59:59;;;;;;;3.15;2.30;;;;;;;20.08;80.00;99389.75;6097189;28;20997;-68
2023/08/02 12:03:21;;;;;;;3.28;1.48;;;;;;;19.74;80.41;99402.25;6110198;28;20244;-68
2023/08/02 12:06:47;;;;;;;7.15;2.05;;;;;;;19.72;81.21;99400.78;6103637;29;20262;-68
2023/08/02 12:10:08;;;;;;;4.53;1.67;;;;;;;19.68;82.51;99392.22;6099716;28;20282;-67
2023/08/02 12:13:29;;;;;;;2.90;2.20;;;;;;;19.53;85.14;99380.00;6108208;29;20232;-67
2023/08/02 12:16:50;;;;;;;4.85;2.20;;;;;;;19.75;87.08;99379.31;6104608;29;20597;-66
2023/08/02 12:20:29;;;;;;;2.80;1.85;;;;;;;20.18;87.64;99381.81;6099433;29;20243;-68
2023/08/02 12:23:51;;;;;;;2.53;2.03;;;;;;;20.62;87.23;99356.66;6105977;29;20899;-68
2023/08/02 12:27:14;;;;;;;4.55;1.98;;;;;;;20.34;88.45;99342.81;6095329;29;20240;-67
2023/08/02 12:30:35;;;;;;;2.92;2.35;;;;;;;21.32;87.13;99342.88;6102398;28;20259;-67
2023/08/02 12:33:56;;;;;;;1.90;1.80;;;;;;;22.53;83.56;99325.91;6098857;28;20888;-70
2023/08/02 12:37:18;;;;;;;5.15;1.63;;;;;;;22.53;81.04;99317.66;6103086;29;20693;-70
2023/08/02 12:40:39;;;;;;;1.52;1.42;;;;;;;22.38;81.75;99304.53;6105648;29;20232;-69
2023/08/02 12:44:02;;;;;;;5.05;2.00;;;;;;;22.45;79.79;99291.44;6077668;29;20239;-66
2023/08/02 12:47:22;;;;;;;2.38;1.58;;;;;;;22.54;79.94;99291.84;6101201;29;20240;-69
2023/08/02 12:50:43;;;;;;;2.00;1.33;;;;;;;21.80;80.85;99287.59;6080362;29;20232;-67
2023/08/02 12:54:05;;;;;;;3.22;1.77;;;;;;;21.21;83.61;99299.91;6105736;29;20513;-69
2023/08/02 12:57:27;;;;;;;3.90;2.03;;;;;;;20.70;85.79;99300.69;6106809;28;20231;-67
2023/08/02 13:00:48;;;;;;;1.17;1.10;;;;;;;20.89;86.80;99290.41;6104705;28;20334;-68
2023/08/02 13:04:09;;;;;;;1.50;1.40;;;;;;;20.73;87.19;99284.59;6114212;28;20261;-68
2023/08/02 13:07:31;;;;;;;2.67;1.67;;;;;;;20.38;88.18;99274.75;6074011;29;20583;-66
2023/08/02 13:10:54;;;;;;;1.40;1.30;;;;;;;19.77;89.24;99272.41;6109278;28;20251;-67
2023/08/02 13:14:15;;;;;;;2.38;1.70;;;;;;;19.85;91.29;99272.06;6116127;28;20232;-66
2023/08/02 13:17:36;;;;;;;10.02;1.65;;;;;;;19.48;91.97;99276.00;6106782;28;20232;-67
2023/08/02 13:20:58;;;;;;;1.65;1.55;;;;;;;19.21;93.25;99277.41;6108309;29;20245;-68
2023/08/02 13:24:19;;;;;;;2.70;1.85;;;;;;;19.55;94.79;99274.00;6107416;28;22362;-68
2023/08/02 13:27:41;;;;;;;4.60;2.25;;;;;;;19.30;96.00;99273.28;6113012;28;20583;-68
2023/08/02 13:31:02;;;;;;;3.58;2.17;;;;;;;19.12;97.83;99269.53;6109798;28;20579;-68
2023/08/02 13:34:22;;;;;;;1.77;1.67;;;;;;;19.10;98.50;99265.38;6105330;28;20239;-68
2023/08/02 13:37:43;;;;;;;2.65;2.17;;;;;;;19.11;100.00;99248.72;6103561;28;20220;-67
2023/08/02 13:41:04;;;;;;;1.70;1.40;;;;;;;19.15;100.00;99236.28;6107445;29;20235;-70
2023/08/02 13:44:26;;;;;;;2.40;1.50;;;;;;;19.54;100.00;99228.59;6103893;29;20236;-70
2023/08/02 13:47:47;;;;;;;1.65;1.45;;;;;;;19.94;99.95;99226.88;6103780;28;20240;-71
2023/08/02 13:51:08;;;;;;;3.28;2.03;;;;;;;19.48;100.00;99226.81;6108373;28;20235;-70
2023/08/02 13:54:32;;;;;;;3.00;2.17;;;;;;;19.44;100.00;99223.69;6110896;28;20248;-70
2023/08/02 13:57:53;;;;;;;1.65;1.55;;;;;;;19.55;100.00;99216.59;6106802;29;20274;-71
2023/08/02 14:01:15;;;;;;;2.35;1.80;;;;;;;19.45;100.00;99205.38;6109967;28;20235;-71
2023/08/02 14:04:36;;;;;;;2.28;1.45;;;;;;;19.57;100.00;99200.78;6107160;29;20610;-71
2023/08/02 14:07:57;;;;;;;5.43;2.17;;;;;;;19.49;100.00;99184.72;6099950;28;20236;-70
2023/08/02 14:11:17;;;;;;;3.08;2.28;;;;;;;19.53;100.00;99169.50;6104055;28;20239;-70
2023/08/02 14:14:38;;;;;;;3.72;2.72;;;;;;;19.31;100.00;99180.16;6112359;28;20315;-71
2023/08/02 14:18:00;;;;;;;4.80;2.35;;;;;;;19.49;100.00;99173.78;6106195;28;20240;-70
2023/08/02 14:21:21;;;;;;;2.55;2.35;;;;;;;19.03;100.00;99161.66;6090564;28;20335;-70
2023/08/02 14:24:42;;;;;;;2.35;1.60;;;;;;;19.17;100.00;99156.00;6099099;29;20247;-69
2023/08/02 14:28:05;;;;;;;3.60;2.15;;;;;;;19.34;100.00;99148.81;6092500;28;20240;-69
2023/08/02 14:31:26;;;;;;;2.03;1.60;;;;;;;19.36;100.00;99136.56;6089768;28;20323;-70
2023/08/02 14:34:48;;;;;;;1.95;1.55;;;;;;;19.29;100.00;99133.09;6094876;29;20240;-68
2023/08/02 14:38:09;;;;;;;2.40;2.20;;;;;;;19.53;100.00;99131.22;6079124;29;20236;-68
2023/08/02 14:41:30;;;;;;;3.20;2.28;;;;;;;19.50;100.00;99129.00;6087465;28;20303;-68
2023/08/02 14:44:51;;;;;;;2.45;2.25;;;;;;;19.48;100.00;99117.47;6105952;28;20749;-69
2023/08/02 14:48:12;;;;;;;2.53;1.80;;;;;;;19.39;100.00;99100.56;6081707;29;20232;-68
2023/08/02 14:51:34;;;;;;;3.80;1.95;;;;;;;19.30;100.00;99101.94;6090087;28;20232;-74
2023/08/02 14:54:55;;;;;;;2.65;2.45;;;;;;;19.25;100.00;99096.38;6102434;28;20541;-79
2023/08/02 14:58:17;;;;;;;2.85;1.50;;;;;;;18.88;100.00;99094.84;6080252;29;21124;-70
2023/08/02 15:01:38;;;;;;;2.10;1.70;;;;;;;19.03;100.00;99085.16;6073938;29;20244;-72
2023/08/02 15:04:59;;;;;;;1.88;1.20;;;;;;;19.06;100.00;99078.41;6078007;29;20228;-73
2023/08/02 15:08:21;;;;;;;0.98;0.98;;;;;;;19.09;100.00;99078.75;6050852;29;20223;-74
2023/08/02 15:11:42;;;;;;;3.25;1.58;;;;;;;18.80;100.00;99079.63;6057558;29;20323;-75
2023/08/02 15:15:04;;;;;;;1.08;1.02;;;;;;;18.78;100.00;99073.56;6070419;29;20228;-73
2023/08/02 15:18:25;;;;;;;6.50;1.20;;;;;;;19.07;100.00;99069.13;6058184;28;20237;-68
2023/08/02 15:21:46;;;;;;;1.42;1.17;;;;;;;18.92;100.00;99060.56;6054379;29;20240;-65
2023/08/02 15:25:09;;;;;;;1.50;1.33;;;;;;;19.01;100.00;99059.13;6060451;28;20620;-65
2023/08/02 15:28:30;;;;;;;1.08;1.05;;;;;;;18.83;100.00;99049.16;6060712;29;20597;-64
2023/08/02 15:31:54;;;;;;;1.45;1.35;;;;;;;18.94;100.00;99053.78;6064371;29;20335;-66
2023/08/02 15:35:16;;;;;;;1.27;1.10;;;;;;;18.68;100.00;99042.44;6080883;29;20248;-65
2023/08/02 15:38:38;;;;;;;2.47;2.28;;;;;;;18.85;100.00;99038.81;6085559;29;20486;-64
2023/08/02 15:42:00;;;;;;;2.70;1.88;;;;;;;18.85;100.00;99030.63;6092874;29;20236;-64
2023/08/02 15:45:21;;;;;;;1.35;1.25;;;;;;;18.49;100.00;99005.34;6099155;29;20294;-65